Kelford, North Carolina
Current Conditions -  °F | °C
As of 7:15 AM on Tuesday 27 Jan 2015 (Local Time) from KASJ Reporting Station
Light Snow Light Snow  
Wind Chill: 24°   Ceiling: 3000
Heat Index: 31°   Visibility: 5mi
Dew Point: 25°   Wind: 7mph
Humidity: 80%   Direction: 350°N
Pressure: 29.79"   Gusts: 21mph
Location:  36.18°N, 77.22°W
Report Text: KASJ 271215Z AUTO 35006G18KT 5SM -SN BKN030 BKN040 M01/M04 A2979 RMK AO2 T10061037
Loading
Personal Weather Stations






























Interactive Weather Map New forecast layout! Learn more

10-Day Weather Forecast

Advertisements
Track Severe Weather on mobile